PWSweather.com
Personal Weather Stations
Station Observations
WISCHPK61
Green Bay Schmitt Park, Green Bay, WI 54311

Green Bay Schmitt ParkGreen Bay, WI 54311

Lat: 44.514277, Lon: -87.935067

Elevation: 735

Station Type: Acu Rite Pro Weather Center model 02032C

http://greenbayweathercam.com

High Low Average
Temperature 42.4°F5.8°C 33.8°F1.0°C 36.5°F2.5°C
Dew Point 42.1°F5.6°C 23.3°F-4.8°C 34.5°F1.4°C
Winds Calm Calm Calm Calm Calm WCalm W
Wind Gusts 6.9 mph11.1 kmh -- --
Humidity 99% 58% 93%
Pressure 29.39 in995.3 mb 29.08 in984.8 mb -
Precipitation 0.00 in0.0 mm - -
Hour Temp Dew Point Humidity Winds Wind Gusts Pressure Precip Precip Rate Daily Precip Total
12:00 AM 35.8°F2.1°C 35.5°F1.9°C 99% Calm Calm -- 29.07 in984.4 mb - 0.00 in0.0 mm 0.00 in0.0 mm
01:00 AM 35.4°F1.9°C 35.1°F1.7°C 99% Calm Calm -- 29.08 in984.8 mb - 0.00 in0.0 mm 0.00 in0.0 mm
02:00 AM 34.7°F1.5°C 34.4°F1.3°C 99% Calm Calm -- 29.09 in985.1 mb - 0.00 in0.0 mm 0.00 in0.0 mm
03:00 AM 34.5°F1.4°C 34.2°F1.2°C 99% Calm Calm 1.2 mph1.9 kmh 29.09 in985.1 mb - 0.00 in0.0 mm 0.00 in0.0 mm
04:00 AM 34.3°F1.3°C 34.0°F1.1°C 99% Calm Calm -- 29.11 in985.8 mb - 0.00 in0.0 mm 0.00 in0.0 mm
05:00 AM 34.0°F1.1°C 33.7°F0.9°C 99% Calm Calm -- 29.13 in986.5 mb - 0.00 in0.0 mm 0.00 in0.0 mm
06:00 AM 33.8°F1.0°C 33.5°F0.8°C 99% Calm Calm -- 29.15 in987.1 mb - 0.00 in0.0 mm 0.00 in0.0 mm
07:00 AM 33.8°F1.0°C 33.5°F0.8°C 99% Calm Calm -- 29.18 in988.1 mb - 0.00 in0.0 mm 0.00 in0.0 mm
08:00 AM 34.9°F1.6°C 34.6°F1.4°C 99% Calm Calm -- 29.21 in989.2 mb - 0.00 in0.0 mm 0.00 in0.0 mm
09:00 AM 36.9°F2.7°C 36.6°F2.6°C 99% Calm Calm -- 29.23 in989.8 mb - 0.00 in0.0 mm 0.00 in0.0 mm
10:00 AM 36.3°F2.4°C 23.3°F-4.8°C 59% Calm Calm -- 29.24 in990.2 mb - 0.00 in0.0 mm 0.00 in0.0 mm
11:00 AM 37.9°F3.3°C 37.6°F3.1°C 99% Calm Calm -- 29.27 in991.2 mb - 0.00 in0.0 mm 0.00 in0.0 mm
12:00 PM 40.7°F4.8°C 40.4°F4.7°C 99% Calm Calm 6.9 mph11.1 kmh 29.30 in992.2 mb - 0.00 in0.0 mm 0.00 in0.0 mm
01:00 PM 42.4°F5.8°C 42.1°F5.6°C 99% Calm Calm -- 29.28 in991.5 mb - 0.00 in0.0 mm 0.00 in0.0 mm
02:00 PM 39.0°F3.9°C 38.8°F3.8°C 99% Calm Calm -- 29.32 in992.9 mb - 0.00 in0.0 mm 0.00 in0.0 mm
03:00 PM 38.8°F3.8°C 38.5°F3.6°C 99% Calm Calm -- 29.34 in993.6 mb - 0.00 in0.0 mm 0.00 in0.0 mm
04:00 PM 39.9°F4.4°C 33.6°F0.9°C 78% Calm Calm -- 29.32 in992.9 mb - 0.00 in0.0 mm 0.00 in0.0 mm
05:00 PM 39.2°F4.0°C 28.0°F-2.2°C 64% Calm Calm -- 29.32 in992.9 mb - 0.00 in0.0 mm 0.00 in0.0 mm
06:00 PM 37.9°F3.3°C 24.4°F-4.2°C 58% Calm Calm -- 29.33 in993.2 mb - 0.00 in0.0 mm 0.00 in0.0 mm
07:00 PM 36.8°F2.7°C 36.6°F2.6°C 99% Calm Calm -- 29.36 in994.2 mb - 0.00 in0.0 mm 0.00 in0.0 mm
08:00 PM 36.0°F2.2°C 35.7°F2.1°C 99% Calm Calm -- 29.37 in994.6 mb - 0.00 in0.0 mm 0.00 in0.0 mm
09:00 PM 35.6°F2.0°C 35.3°F1.8°C 99% Calm Calm -- 29.38 in994.9 mb - 0.00 in0.0 mm 0.00 in0.0 mm
10:00 PM 35.2°F1.8°C 34.9°F1.6°C 99% Calm Calm -- 29.39 in995.3 mb - 0.00 in0.0 mm 0.00 in0.0 mm
11:00 PM 34.8°F1.6°C 34.6°F1.4°C 99% Calm Calm -- 29.38 in994.9 mb - 0.00 in0.0 mm 0.00 in0.0 mm